createdAt,value
2016-11-19T21:14:27.782Z,43.571
2016-11-19T21:14:41.685Z,43.626
2016-11-19T21:16:25.755Z,43.456
2016-11-19T21:17:40.902Z,44.092
2016-11-19T21:18:44.926Z,43.776
2016-11-19T21:21:34.865Z,43.682
2016-11-19T21:24:30.215Z,43.544
2016-11-19T21:27:26.030Z,43.842
2016-11-19T21:30:21.858Z,44.020
2016-11-19T21:33:17.979Z,44.204
2016-11-19T21:36:14.219Z,44.221
2016-11-19T21:39:10.327Z,44.440
2016-11-19T21:45:22.291Z,43.746
2016-11-19T21:48:21.542Z,39.488
2016-11-19T21:51:12.353Z,45.500
2016-11-19T21:54:07.192Z,54.227
2016-11-19T21:57:02.197Z,62.289
2016-11-19T21:59:57.366Z,65.238
2016-11-19T22:02:52.736Z,69.125
2016-11-19T22:05:48.153Z,76.023
2016-11-19T22:08:43.769Z,77.377
2016-11-19T22:11:39.436Z,78.565
2016-11-19T22:14:35.244Z,78.419
2016-11-19T22:17:31.100Z,82.959
2016-11-19T22:20:27.016Z,82.654
2016-11-19T22:23:23.097Z,86.616
2016-11-19T22:26:18.896Z,84.406
2016-11-19T22:29:14.835Z,81.208
2016-11-19T22:32:10.720Z,79.880
2016-11-19T22:35:06.589Z,85.106
2016-11-19T22:38:02.467Z,86.802
2016-11-19T22:40:58.349Z,84.897
2016-11-19T22:43:54.344Z,80.939
2016-11-19T22:46:50.844Z,87.412
2016-11-19T22:49:46.854Z,86.444
2016-11-19T22:52:42.638Z,84.102
2016-11-19T22:55:38.568Z,89.171
2016-11-19T22:58:34.388Z,85.554
2016-11-19T23:01:30.332Z,87.018
2016-11-19T23:04:26.232Z,90.610
2016-11-19T23:07:22.302Z,87.773
2016-11-19T23:10:18.749Z,88.532
2016-11-19T23:13:14.569Z,88.227
2016-11-19T23:16:10.495Z,91.507
2016-11-19T23:19:06.418Z,88.645
2016-11-19T23:22:02.385Z,89.451
2016-11-19T23:24:58.396Z,90.902
2016-11-19T23:27:54.335Z,89.996
2016-11-19T23:30:50.334Z,85.456
2016-11-19T23:33:46.311Z,86.511
2016-11-19T23:36:42.361Z,88.977
2016-11-19T23:39:38.314Z,92.709
2016-11-19T23:42:34.276Z,88.539
2016-11-19T23:45:30.149Z,90.854
2016-11-19T23:48:26.132Z,89.101
2016-11-19T23:51:21.986Z,89.648
2016-11-19T23:54:18.013Z,91.123
2016-11-19T23:57:14.516Z,89.413
